Detalii statie CORIPLANT MIHALT [0000197B]

Toti senzorii

Date Temperatura solului [C]Precipitatii [mm]Voltaj baterie [mV]Leaf Wetness [Min]HC Air temperature [C]HC Relative humidity [%]Punctul de roua [C]
medieminmaxsumaultimatimpmedieminmaxmediemediemin
2018-06-20 10:00:00 0 7088 27.37 26.12 28.79 100 27.3 26.1
2018-06-20 11:00:00 0 7138 30.06 29.13 31.21 98.83 29.7 29.1
2018-06-20 12:00:00 0 7166 30.7 29.99 31.44 94.41 29.5 28.6
2018-06-20 13:00:00 0 7166 32 30.27 33 91.01 30.1 28.5
2018-06-20 14:00:00 0 7166 33.12 32.6 33.72 84.89 30 28.5
2018-06-20 15:00:00 0 7166 33.34 32.65 34.31 78.07 28.8 26.6
2018-06-20 16:00:00 0.2 7166 34.25 33.56 34.91 75.66 29.1 27.7
2018-06-20 17:00:00 0 7166 34.41 33.63 35.3 74.94 29.1 27
2018-06-20 18:00:00 0 7166 32.25 30.49 35.12 82.21 28.6 27
2018-06-20 19:00:00 0 7166 27.81 25.91 32.42 90.26 25.9 23.8
2018-06-20 20:00:00 0 6932 25.34 24.72 25.73 96.64 24.6 23.9
2018-06-20 21:00:00 0 6864 23.52 22.82 24.51 99.92 23.4 22.8
2018-06-20 22:00:00 0 6834 22.86 22.42 23.29 100 22.8 22.4
2018-06-20 23:00:00 0 6806 22.4 22.1 22.69 100 22.3 22.1
2018-06-21 00:00:00 0 6806 21.96 21.8 22.09 100 21.9 21.8
2018-06-21 01:00:00 0 6776 21.55 21.39 21.78 100 21.4 21.3
2018-06-21 02:00:00 0 6776 20.89 20.51 21.36 100 20.8 20.5
2018-06-21 03:00:00 0 6766 20.31 20.08 20.52 100 20.2 20
2018-06-21 04:00:00 0 6766 19.48 19.05 20.06 100 19.4 19
2018-06-21 05:00:00 0 6766 18.72 18.33 19.09 100 18.6 18.3
2018-06-21 06:00:00 0 6864 18.57 18.23 18.91 100 18.5 18.2
2018-06-21 07:00:00 0 7080 19.79 19 21.07 100 19.7 19
2018-06-21 08:00:00 0 7128 23.17 21.53 24.48 100 23.1 21.5
2018-06-21 09:00:00 0 7088 26.21 24.71 27.32 96.57 25.4 24.7
2018-06-21 10:00:00 0 7148 27.99 26.97 29.36 90.13 26 25.1
2018-06-21 11:00:00 0 7148 29.9 28.87 30.83 82.09 26.3 25.1
2018-06-21 12:00:00 0 7166 31.86 30.41 32.44 79.26 27.6 26.1
2018-06-21 13:00:00 0 7138 29.47 27.03 31.68 85.22 26.5 24.3
2018-06-21 14:00:00 0 7118 24.69 23.32 26.97 88.81 22.5 21
2018-06-21 15:00:00 2.4 7138 22.54 20.91 23.51 92.61 21.1 20.9
2018-06-21 16:00:00 0 7196 22.33 20.97 24.11 100 22.3 20.9
2018-06-21 17:00:00 0 7108 25.63 24.88 26.17 95.22 24.6 23.8
2018-06-21 18:00:00 0 7088 25.18 24.29 26.18 90.92 23.4 22.6
2018-06-21 19:00:00 0 7176 23.77 22.61 24.4 98.32 23.4 22.5
2018-06-21 20:00:00 0 6952 21.03 19.89 22.38 100 20.9 19.8
2018-06-21 21:00:00 0 6922 19.47 19.1 19.97 100 19.4 19.1
2018-06-21 22:00:00 0 6894 18.53 18.35 18.89 100 18.4 18.3
2018-06-21 23:00:00 0 6874 17.8 17.4 18.42 100 17.7 17.4
2018-06-22 00:00:00 0 6844 17.04 16.67 17.28 100 16.9 16.6
2018-06-22 01:00:00 0 6806 16.19 15.61 16.56 100 16.1 15.6
2018-06-22 02:00:00 0 6796 16.36 15.89 16.68 100 16.3 15.8
2018-06-22 03:00:00 0 6786 17.21 16.97 17.37 100 17.1 16.9
2018-06-22 04:00:00 0 6776 16.84 16.35 17.43 100 16.8 16.3
2018-06-22 05:00:00 0 6776 15.66 15.27 16.2 100 15.6 15.2
2018-06-22 06:00:00 0 6844 15.64 15.27 16.49 100 15.6 15.2
2018-06-22 07:00:00 0.2 7088 17.24 16.67 17.75 100 17.1 16.6